createdAt,value
2022-09-01T00:00:11.461Z,71.69
2022-09-01T00:02:39.224Z,71.72
2022-09-01T00:05:07.675Z,71.53
2022-09-01T00:07:35.873Z,71.72
2022-09-01T00:10:07.741Z,72.00
2022-09-01T00:12:35.673Z,72.05
2022-09-01T00:15:04.982Z,71.82
2022-09-01T00:17:32.742Z,72.23
2022-09-01T00:19:59.957Z,72.08
2022-09-01T00:22:27.116Z,72.78
2022-09-01T00:24:54.183Z,72.58
2022-09-01T00:27:22.827Z,72.45
2022-09-01T00:29:58.935Z,72.60
2022-09-01T00:32:27.104Z,72.90
2022-09-01T00:34:54.348Z,72.82
2022-09-01T00:37:21.510Z,72.88
2022-09-01T00:39:48.766Z,72.47
2022-09-01T00:42:16.212Z,73.13
2022-09-01T00:44:43.832Z,73.18
2022-09-01T00:47:13.722Z,73.00
2022-09-01T00:49:47.700Z,72.98
2022-09-01T00:52:34.482Z,73.30
2022-09-01T00:55:29.267Z,73.60
2022-09-01T00:57:59.276Z,73.40
2022-09-01T01:00:32.283Z,73.56
2022-09-01T01:02:59.802Z,73.47
2022-09-01T01:05:40.690Z,73.83
2022-09-01T01:08:11.995Z,74.09
2022-09-01T01:10:42.213Z,73.66
2022-09-01T01:13:15.497Z,73.77
2022-09-01T01:15:44.453Z,73.68
2022-09-01T01:18:14.639Z,73.62
2022-09-01T01:21:03.040Z,73.90
2022-09-01T01:24:14.662Z,73.86
2022-09-01T01:26:42.537Z,73.91
2022-09-01T01:29:10.236Z,74.12
2022-09-01T01:31:37.993Z,74.46
2022-09-01T01:34:08.915Z,74.24
2022-09-01T01:36:39.631Z,73.98
2022-09-01T01:39:17.395Z,74.03
2022-09-01T01:41:49.007Z,74.34
2022-09-01T01:44:22.737Z,74.50
2022-09-01T01:46:54.721Z,74.49
2022-09-01T01:49:27.647Z,74.02
2022-09-01T01:51:56.936Z,74.08
2022-09-01T01:54:34.210Z,74.03
2022-09-01T01:57:04.573Z,74.38
2022-09-01T01:59:33.966Z,74.30
2022-09-01T02:02:04.026Z,74.29
2022-09-01T02:04:34.232Z,74.57
2022-09-01T02:07:13.708Z,74.63
2022-09-01T02:09:46.208Z,74.83
2022-09-01T02:12:19.625Z,74.46
2022-09-01T02:14:46.882Z,74.83
2022-09-01T02:17:14.052Z,74.31
2022-09-01T02:19:43.320Z,75.03
2022-09-01T02:22:11.507Z,74.80
2022-09-01T02:24:45.046Z,74.99
2022-09-01T02:27:12.232Z,74.28
2022-09-01T02:29:43.740Z,74.50
2022-09-01T02:32:11.884Z,74.71
2022-09-01T02:34:40.054Z,74.66
2022-09-01T02:37:07.539Z,74.90
2022-09-01T02:39:34.617Z,75.38
2022-09-01T02:42:01.978Z,75.33
2022-09-01T02:44:31.294Z,75.17
2022-09-01T02:47:01.912Z,75.72
2022-09-01T02:49:30.021Z,75.88
2022-09-01T02:52:01.991Z,75.96
2022-09-01T02:54:33.015Z,76.03
2022-09-01T02:57:01.275Z,76.10
2022-09-01T02:59:30.762Z,75.89
2022-09-01T03:02:01.081Z,76.44
2022-09-01T03:04:34.965Z,76.09
2022-09-01T03:07:07.167Z,76.11
2022-09-01T03:09:35.562Z,75.92
2022-09-01T03:12:04.078Z,76.58
2022-09-01T03:14:32.030Z,76.79
2022-09-01T03:17:00.689Z,76.87
2022-09-01T03:19:41.951Z,76.54
2022-09-01T03:22:10.055Z,76.79
2022-09-01T03:24:39.114Z,77.00
2022-09-01T03:27:06.351Z,77.11
2022-09-01T03:29:33.807Z,77.08
2022-09-01T03:32:02.900Z,76.87
2022-09-01T03:34:34.393Z,77.11
2022-09-01T03:37:03.657Z,77.13
2022-09-01T03:39:31.360Z,77.12
2022-09-01T03:41:58.985Z,77.02
2022-09-01T03:44:27.750Z,76.91
2022-09-01T03:46:55.538Z,77.15
2022-09-01T03:49:27.898Z,77.23
2022-09-01T03:51:57.526Z,77.04
2022-09-01T03:54:30.562Z,76.95
2022-09-01T03:57:00.081Z,77.07
2022-09-01T03:59:30.292Z,76.74
2022-09-01T04:02:00.317Z,76.73
2022-09-01T04:04:32.847Z,76.51
2022-09-01T04:07:00.354Z,76.52
2022-09-01T04:09:29.230Z,76.94
2022-09-01T04:11:56.569Z,77.15
2022-09-01T04:14:25.592Z,77.63
2022-09-01T04:17:13.403Z,77.03
2022-09-01T04:19:42.305Z,77.27
2022-09-01T04:22:14.435Z,77.50
2022-09-01T04:24:46.780Z,77.85
2022-09-01T04:27:18.438Z,78.05
2022-09-01T04:29:47.101Z,77.83
2022-09-01T04:32:15.961Z,77.76
2022-09-01T04:34:49.819Z,77.97
2022-09-01T04:37:22.143Z,78.34
2022-09-01T04:40:01.513Z,78.25
2022-09-01T04:42:32.720Z,77.93
2022-09-01T04:45:10.756Z,77.95
2022-09-01T04:47:42.814Z,77.78
2022-09-01T04:50:17.358Z,78.02
2022-09-01T04:53:06.227Z,77.71
2022-09-01T04:55:44.350Z,78.33
2022-09-01T04:58:17.952Z,77.84
2022-09-01T05:00:52.245Z,78.26
2022-09-01T05:03:26.778Z,78.05
2022-09-01T05:06:18.602Z,77.76
2022-09-01T05:08:56.511Z,78.21
2022-09-01T05:11:46.144Z,78.15
2022-09-01T05:14:49.018Z,78.22
2022-09-01T05:17:22.333Z,78.32
2022-09-01T05:20:00.890Z,78.37
2022-09-01T05:22:30.813Z,78.67
2022-09-01T05:25:12.014Z,79.03
2022-09-01T05:27:50.005Z,79.10
2022-09-01T05:30:24.120Z,79.11
2022-09-01T05:32:53.784Z,79.52
2022-09-01T05:35:24.755Z,79.92
2022-09-01T05:37:59.834Z,80.28
2022-09-01T05:40:28.618Z,80.14
2022-09-01T05:42:56.272Z,80.51
2022-09-01T05:45:24.525Z,80.21
2022-09-01T05:47:55.112Z,80.31
2022-09-01T05:50:22.875Z,79.87
2022-09-01T05:52:51.209Z,80.01
2022-09-01T05:55:18.582Z,79.91
2022-09-01T05:57:50.853Z,79.94
2022-09-01T06:00:18.789Z,79.84
2022-09-01T06:02:49.673Z,80.09
2022-09-01T06:05:21.446Z,80.17
2022-09-01T06:07:52.103Z,80.12
2022-09-01T06:10:20.490Z,79.84
2022-09-01T06:12:48.658Z,79.59
2022-09-01T06:15:18.694Z,79.59
2022-09-01T06:17:50.282Z,79.96
2022-09-01T06:20:19.676Z,79.59
2022-09-01T06:22:48.213Z,79.52
2022-09-01T06:25:18.658Z,79.38
2022-09-01T06:27:48.439Z,79.22
2022-09-01T06:30:24.113Z,78.91
2022-09-01T06:33:11.499Z,79.21
2022-09-01T06:35:46.040Z,79.07
2022-09-01T06:38:17.845Z,78.50
2022-09-01T06:40:51.195Z,78.44
2022-09-01T06:43:23.334Z,79.15
2022-09-01T06:45:55.081Z,78.73
2022-09-01T06:48:24.992Z,78.11
2022-09-01T06:51:17.263Z,78.13
2022-09-01T06:53:56.649Z,78.08
2022-09-01T06:56:32.395Z,77.94
2022-09-01T06:59:06.314Z,78.20
2022-09-01T07:01:39.515Z,78.47
2022-09-01T07:04:12.735Z,78.46
2022-09-01T07:10:06.117Z,78.60
2022-09-01T07:18:39.512Z,78.74
2022-09-01T07:21:38.742Z,78.61
2022-09-01T07:24:10.688Z,78.08
2022-09-01T07:26:46.836Z,78.58
2022-09-01T07:29:15.649Z,78.66
2022-09-01T07:31:52.082Z,78.30
2022-09-01T07:42:30.689Z,77.49
2022-09-01T07:43:42.858Z,77.38
2022-09-01T07:47:19.484Z,76.71
2022-09-01T07:50:11.426Z,76.53
2022-09-01T07:52:29.232Z,76.40
2022-09-01T07:54:58.790Z,75.94
2022-09-01T07:57:26.652Z,75.69
2022-09-01T07:59:56.124Z,75.17
2022-09-01T08:02:47.225Z,74.90
2022-09-01T08:05:22.524Z,74.56
2022-09-01T08:07:52.812Z,74.73
2022-09-01T08:10:25.402Z,73.79
2022-09-01T08:12:59.987Z,73.86
2022-09-01T08:16:06.797Z,73.48
2022-09-01T08:18:16.829Z,73.48
2022-09-01T08:20:45.855Z,73.74
2022-09-01T08:23:37.975Z,72.74
2022-09-01T08:26:13.900Z,72.26
2022-09-01T08:28:46.425Z,72.62
2022-09-01T08:31:18.996Z,72.18
2022-09-01T08:33:49.779Z,71.87
2022-09-01T08:36:23.058Z,71.56
2022-09-01T08:38:52.877Z,70.56
2022-09-01T08:41:36.487Z,70.20
2022-09-01T08:44:26.289Z,69.35
2022-09-01T08:47:43.612Z,66.83
2022-09-01T08:50:13.363Z,66.89
2022-09-01T08:53:35.387Z,67.03
2022-09-01T08:56:03.175Z,66.26
2022-09-01T08:58:32.598Z,65.74
2022-09-01T09:01:08.107Z,64.99
2022-09-01T09:04:22.497Z,65.14
2022-09-01T09:07:22.179Z,63.55
2022-09-01T09:10:05.911Z,64.25
2022-09-01T09:13:08.569Z,61.89
2022-09-01T09:15:50.521Z,62.35
2022-09-01T09:18:39.745Z,62.37
2022-09-01T09:21:22.665Z,61.00
2022-09-01T09:24:00.931Z,61.59
2022-09-01T09:26:42.304Z,62.73
2022-09-01T09:29:10.287Z,63.52
2022-09-01T09:31:46.018Z,62.70
2022-09-01T09:34:41.874Z,62.21
2022-09-01T09:37:31.209Z,62.08
2022-09-01T09:40:08.555Z,61.60
2022-09-01T09:43:04.220Z,60.74
2022-09-01T09:45:42.021Z,61.47
2022-09-01T09:48:29.258Z,62.29
2022-09-01T09:50:56.629Z,61.43
2022-09-01T09:53:34.358Z,61.37
2022-09-01T09:56:27.866Z,61.41
2022-09-01T09:59:02.024Z,61.75
2022-09-01T10:01:31.924Z,61.03
2022-09-01T10:04:03.830Z,61.05
2022-09-01T10:06:48.253Z,60.34
2022-09-01T10:09:23.344Z,59.98
2022-09-01T10:11:58.769Z,59.32
2022-09-01T10:14:52.225Z,59.83
2022-09-01T10:17:36.178Z,59.81
2022-09-01T10:20:26.716Z,58.93
2022-09-01T10:22:54.721Z,58.56
2022-09-01T10:25:32.420Z,59.08
2022-09-01T10:28:20.905Z,58.43
2022-09-01T10:30:53.206Z,57.44
2022-09-01T10:33:22.836Z,56.97
2022-09-01T10:35:54.063Z,56.66
2022-09-01T10:38:26.237Z,56.77
2022-09-01T10:41:10.073Z,56.49
2022-09-01T10:43:49.545Z,56.92
2022-09-01T10:46:25.928Z,55.62
2022-09-01T10:49:03.422Z,55.84
2022-09-01T10:51:39.143Z,55.68
2022-09-01T10:54:55.782Z,55.08
2022-09-01T10:57:47.356Z,54.38
2022-09-01T11:00:35.111Z,54.07
2022-09-01T11:06:13.257Z,54.39
2022-09-01T11:08:50.763Z,54.23
2022-09-01T11:11:38.231Z,52.64
2022-09-01T11:14:20.179Z,52.84
2022-09-01T11:17:23.383Z,52.82
2022-09-01T11:20:15.799Z,53.08
2022-09-01T11:23:03.813Z,52.53
2022-09-01T11:25:43.959Z,52.26
2022-09-01T11:28:18.169Z,52.14
2022-09-01T11:31:08.661Z,52.09
2022-09-01T11:34:04.679Z,51.35
2022-09-01T11:36:48.291Z,51.75
2022-09-01T11:39:20.879Z,50.96
2022-09-01T11:41:57.486Z,51.38
2022-09-01T11:44:36.922Z,50.90
2022-09-01T11:47:17.474Z,50.27
2022-09-01T11:49:57.510Z,50.48
2022-09-01T11:52:31.726Z,50.37
2022-09-01T11:55:00.298Z,50.00
2022-09-01T11:57:37.811Z,49.44
2022-09-01T12:00:13.862Z,49.32
2022-09-01T12:02:51.650Z,48.78
2022-09-01T12:05:33.574Z,48.19
2022-09-01T12:08:14.031Z,48.81
2022-09-01T12:10:44.454Z,48.84
2022-09-01T12:13:18.769Z,48.64
2022-09-01T12:16:16.559Z,47.72
2022-09-01T12:18:52.434Z,47.33
2022-09-01T12:21:29.436Z,48.23
2022-09-01T12:24:23.239Z,48.47
2022-09-01T12:26:59.175Z,47.43
2022-09-01T12:29:32.033Z,47.10
2022-09-01T12:32:00.656Z,46.94
2022-09-01T12:34:40.992Z,46.93
2022-09-01T12:37:13.473Z,47.33
2022-09-01T12:40:01.999Z,47.45
2022-09-01T12:42:41.628Z,46.38
2022-09-01T12:45:13.377Z,46.55
2022-09-01T12:47:48.035Z,46.19
2022-09-01T12:50:16.420Z,46.45
2022-09-01T12:52:55.653Z,46.66
2022-09-01T12:58:27.189Z,46.34
2022-09-01T13:01:08.478Z,46.17
2022-09-01T13:04:14.692Z,45.93
2022-09-01T13:06:42.274Z,45.32
2022-09-01T13:09:10.294Z,45.42
2022-09-01T13:14:25.756Z,46.38
2022-09-01T13:16:55.039Z,45.66
2022-09-01T13:19:28.851Z,46.26
2022-09-01T13:21:58.698Z,45.76
2022-09-01T13:24:30.206Z,46.14
2022-09-01T13:29:48.574Z,45.20
2022-09-01T13:32:22.665Z,45.29
2022-09-01T13:34:52.463Z,45.26
2022-09-01T13:37:21.672Z,44.86
2022-09-01T13:39:49.065Z,44.79
2022-09-01T13:42:17.710Z,44.18
2022-09-01T13:44:48.566Z,44.04
2022-09-01T13:47:32.464Z,44.30
2022-09-01T13:50:10.421Z,45.03
2022-09-01T13:52:55.159Z,44.90
2022-09-01T13:55:29.887Z,44.00
2022-09-01T13:57:58.981Z,45.06
2022-09-01T14:00:35.295Z,44.41
2022-09-01T14:03:13.060Z,44.15
2022-09-01T14:05:44.516Z,44.56
2022-09-01T14:08:14.847Z,43.21
2022-09-01T14:10:49.110Z,43.34
2022-09-01T14:13:17.288Z,43.68
2022-09-01T14:15:47.309Z,43.66
2022-09-01T14:18:16.370Z,43.92
2022-09-01T14:20:47.518Z,43.27
2022-09-01T14:23:16.044Z,43.27
2022-09-01T14:25:49.773Z,43.60
2022-09-01T14:28:20.668Z,43.01
2022-09-01T14:33:18.887Z,42.44
2022-09-01T14:35:48.460Z,42.07
2022-09-01T14:38:17.175Z,43.63
2022-09-01T14:40:48.857Z,43.69
2022-09-01T14:43:16.333Z,43.87
2022-09-01T14:45:47.196Z,43.24
2022-09-01T14:48:20.970Z,43.36
2022-09-01T14:50:51.108Z,43.84
2022-09-01T14:53:24.219Z,43.38
2022-09-01T14:55:55.533Z,44.13
2022-09-01T14:58:26.505Z,42.91
2022-09-01T15:01:03.594Z,43.67
2022-09-01T15:03:34.971Z,43.69
2022-09-01T15:06:02.738Z,44.37
2022-09-01T15:08:31.462Z,44.43
2022-09-01T15:11:01.458Z,45.11
2022-09-01T15:13:30.932Z,44.24
2022-09-01T15:15:59.070Z,43.98
2022-09-01T15:18:26.454Z,44.30
2022-09-01T15:20:55.817Z,44.13
2022-09-01T15:23:26.205Z,44.10
2022-09-01T15:25:57.906Z,44.17
2022-09-01T15:28:26.217Z,44.94
2022-09-01T15:30:57.151Z,45.01
2022-09-01T15:33:24.609Z,45.39
2022-09-01T15:35:51.968Z,45.55
2022-09-01T15:38:21.289Z,45.00
2022-09-01T15:40:57.978Z,45.25
2022-09-01T15:43:28.194Z,45.15
2022-09-01T15:45:58.690Z,44.87
2022-09-01T15:48:28.225Z,45.33
2022-09-01T15:51:23.983Z,45.29
2022-09-01T15:53:58.455Z,45.50
2022-09-01T15:56:26.688Z,45.47
2022-09-01T15:59:02.406Z,45.57
2022-09-01T16:01:36.347Z,45.40
2022-09-01T16:04:14.637Z,45.34
2022-09-01T16:06:45.596Z,45.06
2022-09-01T16:09:13.554Z,45.40
2022-09-01T16:11:41.772Z,45.31
2022-09-01T16:14:09.598Z,45.39
2022-09-01T16:16:49.390Z,45.68
2022-09-01T16:19:54.619Z,45.51
2022-09-01T16:22:58.588Z,45.04
2022-09-01T16:25:32.530Z,44.73
2022-09-01T16:28:20.814Z,44.30
2022-09-01T16:30:53.002Z,44.88
2022-09-01T16:33:20.234Z,44.13
2022-09-01T16:36:11.102Z,44.29
2022-09-01T16:38:51.652Z,44.09
2022-09-01T16:41:28.328Z,44.44
2022-09-01T16:44:05.499Z,44.44
2022-09-01T16:46:55.369Z,44.00
2022-09-01T16:49:38.374Z,44.00
2022-09-01T16:52:17.805Z,44.15
2022-09-01T16:55:18.528Z,44.20
2022-09-01T16:58:21.589Z,43.21
2022-09-01T17:01:20.038Z,43.47
2022-09-01T17:03:54.264Z,43.45
2022-09-01T17:06:55.127Z,44.01
2022-09-01T17:09:41.836Z,44.22
2022-09-01T17:12:27.760Z,43.86
2022-09-01T17:15:11.631Z,43.34
2022-09-01T17:17:51.547Z,43.58
2022-09-01T17:20:26.660Z,43.44
2022-09-01T17:23:00.659Z,43.57
2022-09-01T17:25:41.541Z,43.66
2022-09-01T17:28:18.795Z,43.11
2022-09-01T17:31:01.174Z,43.90
2022-09-01T17:33:51.665Z,43.93
2022-09-01T17:36:47.020Z,43.73
2022-09-01T17:39:41.032Z,43.61
2022-09-01T17:42:45.677Z,43.80
2022-09-01T17:45:45.777Z,43.47
2022-09-01T17:48:21.306Z,43.54
2022-09-01T17:51:13.670Z,43.75
2022-09-01T17:54:04.683Z,43.95
2022-09-01T17:57:10.943Z,43.90
2022-09-01T18:00:23.388Z,44.35
2022-09-01T18:03:03.162Z,44.04
2022-09-01T18:05:44.182Z,44.47
2022-09-01T18:08:32.457Z,44.50
2022-09-01T18:11:12.575Z,44.51
2022-09-01T18:14:06.442Z,44.31
2022-09-01T18:17:02.919Z,44.60
2022-09-01T18:19:38.747Z,44.99
2022-09-01T18:22:15.369Z,44.66
2022-09-01T18:25:14.450Z,45.17
2022-09-01T18:27:47.959Z,45.06
2022-09-01T18:30:36.309Z,45.52
2022-09-01T18:33:33.883Z,45.32
2022-09-01T18:36:26.007Z,45.97
2022-09-01T18:39:03.783Z,46.09
2022-09-01T18:42:14.735Z,46.02
2022-09-01T18:45:10.387Z,46.25
2022-09-01T18:47:57.239Z,46.29
2022-09-01T18:50:52.209Z,47.26
2022-09-01T18:53:46.052Z,47.25
2022-09-01T18:56:57.414Z,47.01
2022-09-01T19:00:18.133Z,46.69
2022-09-01T19:03:27.678Z,47.73
2022-09-01T19:06:21.222Z,47.25
2022-09-01T19:09:19.328Z,47.47
2022-09-01T19:12:14.358Z,47.09
2022-09-01T19:14:53.874Z,46.99
2022-09-01T19:17:58.440Z,47.28
2022-09-01T19:20:56.458Z,47.60
2022-09-01T19:23:52.290Z,47.77
2022-09-01T19:26:24.082Z,47.13
2022-09-01T19:29:16.861Z,47.46
2022-09-01T19:31:49.300Z,47.45
2022-09-01T19:34:26.016Z,47.28
2022-09-01T19:37:02.849Z,47.04
2022-09-01T19:39:38.197Z,47.52
2022-09-01T19:42:36.322Z,47.41
2022-09-01T19:45:18.763Z,47.06
2022-09-01T19:48:04.610Z,46.59
2022-09-01T19:50:55.919Z,47.33
2022-09-01T19:53:44.886Z,47.21
2022-09-01T19:56:35.603Z,46.90
2022-09-01T19:59:41.023Z,47.50
2022-09-01T20:02:42.154Z,47.68
2022-09-01T20:05:40.189Z,48.02
2022-09-01T20:08:16.818Z,47.37
2022-09-01T20:11:42.841Z,47.20
2022-09-01T20:14:41.747Z,47.63
2022-09-01T20:17:21.493Z,47.96
2022-09-01T20:20:05.645Z,48.03
2022-09-01T20:22:57.834Z,47.93
2022-09-01T20:25:40.032Z,48.22
2022-09-01T20:28:25.768Z,48.33
2022-09-01T20:31:03.832Z,48.55
2022-09-01T20:33:55.494Z,48.69
2022-09-01T20:36:37.076Z,48.33
2022-09-01T20:39:33.649Z,47.80
2022-09-01T20:42:31.492Z,48.88
2022-09-01T20:45:22.358Z,48.61
2022-09-01T20:47:58.051Z,49.64
2022-09-01T20:50:54.412Z,49.20
2022-09-01T20:53:35.150Z,50.12
2022-09-01T20:56:10.087Z,49.61
2022-09-01T20:58:45.103Z,50.19
2022-09-01T21:01:46.791Z,49.77
2022-09-01T21:04:35.984Z,50.42
2022-09-01T21:07:19.915Z,49.53
2022-09-01T21:09:59.019Z,50.85
2022-09-01T21:12:36.813Z,50.85
2022-09-01T21:15:15.903Z,51.04
2022-09-01T21:18:23.496Z,51.01
2022-09-01T21:20:53.248Z,51.19
2022-09-01T21:23:21.153Z,51.01
2022-09-01T21:25:49.671Z,50.60
2022-09-01T21:28:20.384Z,51.24
2022-09-01T21:30:55.110Z,51.15
2022-09-01T21:33:24.833Z,51.64
2022-09-01T21:35:52.830Z,51.64
2022-09-01T21:38:20.221Z,51.87
2022-09-01T21:40:49.461Z,51.49
2022-09-01T21:43:32.212Z,52.15
2022-09-01T21:46:00.897Z,51.86
2022-09-01T21:48:29.080Z,51.53
2022-09-01T21:50:56.443Z,52.04
2022-09-01T21:53:23.837Z,52.29
2022-09-01T21:55:51.136Z,52.14
2022-09-01T21:58:21.025Z,52.14
2022-09-01T22:00:49.111Z,52.84
2022-09-01T22:03:16.462Z,52.14
2022-09-01T22:05:44.926Z,52.55
2022-09-01T22:08:17.222Z,52.72
2022-09-01T22:10:49.597Z,53.14
2022-09-01T22:13:19.014Z,52.73
2022-09-01T22:15:51.063Z,52.81
2022-09-01T22:18:21.378Z,52.89
2022-09-01T22:20:49.132Z,53.25
2022-09-01T22:23:16.970Z,53.20
2022-09-01T22:25:47.837Z,53.34
2022-09-01T22:28:15.217Z,53.23
2022-09-01T22:30:48.355Z,53.24
2022-09-01T22:33:16.041Z,53.87
2022-09-01T22:35:46.573Z,53.76
2022-09-01T22:38:14.281Z,53.91
2022-09-01T22:40:47.479Z,54.06
2022-09-01T22:43:18.160Z,53.90
2022-09-01T22:45:48.482Z,54.08
2022-09-01T22:48:18.992Z,54.15
2022-09-01T22:50:50.251Z,53.98
2022-09-01T22:53:21.689Z,54.65
2022-09-01T22:55:51.458Z,54.36
2022-09-01T22:58:20.197Z,54.26
2022-09-01T23:00:54.460Z,54.68
2022-09-01T23:03:23.236Z,54.87
2022-09-01T23:05:51.166Z,55.19
2022-09-01T23:08:19.207Z,55.63
2022-09-01T23:10:46.371Z,55.26
2022-09-01T23:13:13.503Z,55.28
2022-09-01T23:15:41.622Z,55.81
2022-09-01T23:18:08.699Z,56.16
2022-09-01T23:20:36.368Z,56.53
2022-09-01T23:23:04.128Z,56.48
2022-09-01T23:25:31.700Z,57.22
2022-09-01T23:27:58.824Z,57.38
2022-09-01T23:30:25.999Z,57.37
2022-09-01T23:32:53.375Z,57.53
2022-09-01T23:35:20.582Z,57.82
2022-09-01T23:37:47.693Z,58.26
2022-09-01T23:40:14.913Z,58.57
2022-09-01T23:42:42.452Z,58.53
2022-09-01T23:45:10.355Z,59.24
2022-09-01T23:47:37.529Z,59.23
2022-09-01T23:50:06.069Z,59.59
2022-09-01T23:52:33.195Z,59.91
2022-09-01T23:55:01.544Z,59.91
2022-09-01T23:57:28.723Z,60.28
2022-09-01T23:59:57.422Z,60.09
